Golden Triangle Regional Airport
KGTR : rendu visible

Aérodrome :











RETROUVEZ-NOUS SUR...

 
LOGIN :

S'inscrire | Disclaimer

   EN    FR    IT 

 









Légende :    VFR   VFR Marginal   IFR   IFR Intensif   IFR Très Intensif
Visi : 
Plafond : 
>= 8 km
>= 3000ft
5 à 8 km
1000 à 3000 ft
1500m à 5 km
500 à 1000 ft
800 à 1500m
200 à 500 ft
< 800m
< 200 ft
Symboles :   Orages  Brouillard  Fortes neiges  Fortes précipitations  Vent > 20 kt






- Altitude de l'aérodrome : 264 ft


KGTR - Golden Triangle Regional

DERNIER METAR :
  • 100804Z AUTO 32009KT 9SM -RA FEW006 BKN050 OVC070 17/17 A2991 RMK AO2 P0000

METARs EXPIRÉS :
  • 100756Z AUTO 32010KT 8SM -RA SCT006 BKN025 OVC055 18/17 A2992 RMK AO2 SLP136 T01780167
  • 100737Z AUTO 26008KT 5SM -RA BR SCT004 BKN010 OVC048 19/18 A2991 RMK AO2 CIG 007V014 PNO $
  • 100725Z AUTO 22006KT 4SM RA BR FEW006 BKN029 OVC048 19/18 A2989 RMK AO2 PNO $
  • 100656Z AUTO 24005KT 10SM -RA BKN046 OVC055 19/19 A2988 RMK AO2 SLP124 T01940189 PNO $
  • 100626Z AUTO 21009KT 7SM -RA FEW007 BKN035 OVC055 19/19 A2990 RMK AO2 PNO $
  • 100559Z AUTO 21010KT 5SM RA BR FEW007 BKN029 OVC060 19/18 A2990 RMK AO2 PNO $
  • 100556Z AUTO 20008KT 5SM -RA BR FEW011 BKN049 OVC060 19/18 A2990 RMK AO2 SLP130 6//// T01890183 10189 20178 402060150 53003 PNO $

TAF KGTR
Valide du 10 à 06h jusqu'au 11 à 06h UTC


100557Z 1006/1106 VRB05KT 6SM -RA BR OVC025
FM100900 33011KT 6SM -RA BR OVC015
FM101100 33013KT 4SM -RA BR OVC007
FM101500 35012G18KT 4SM -RA BR OVC007
FM102300 36011KT 4SM -RA BR OVC007
FM110400 35009KT 4SM -RASN BR OVC007



MET'MAP, la Météo Aéronautique d'un coup d'oeil ! - Copyright ORBIFLY Décembre 2007 - Disclaimer

ORBIFLY MET'MAP TEAM :

Programmation & Développement : Alexandra Zaïnal
Sur une idée originale de : Baudouin d'Aumeries
Assistance à la programmation : Marc-Olivier Méhu
Soutien technique & logistique : Manuel Goepfert

Contact : metmap@orbifly.com




SOURCES & CREDITS :

   NOAA       Earth
Advisory